createdAt,value
2022-09-24T00:13:39.277Z,133.20
2022-09-24T00:38:43.358Z,134.83
2022-09-24T01:03:48.860Z,128.00
2022-09-24T01:29:04.059Z,127.37
2022-09-24T01:54:11.911Z,125.37
2022-09-24T02:19:18.414Z,124.27
2022-09-24T02:44:22.688Z,120.97
2022-09-24T03:09:26.989Z,119.13
2022-09-24T03:34:31.512Z,120.13
2022-09-24T03:59:35.613Z,120.20
2022-09-24T04:24:39.729Z,118.53
2022-09-24T04:49:45.914Z,120.13
2022-09-24T05:14:50.647Z,122.03
2022-09-24T05:39:55.069Z,122.83
2022-09-24T06:04:59.831Z,121.10
2022-09-24T06:30:04.800Z,125.30
2022-09-24T06:55:09.497Z,124.82
2022-09-24T07:20:14.368Z,129.80
2022-09-24T07:45:18.539Z,125.28
2022-09-24T08:10:22.976Z,127.60
2022-09-24T08:35:27.720Z,125.18
2022-09-24T09:00:33.162Z,129.43
2022-09-24T09:25:37.326Z,127.72
2022-09-24T09:50:43.405Z,125.93
2022-09-24T10:15:51.838Z,127.43
2022-09-24T10:40:56.058Z,130.85
2022-09-24T11:06:16.786Z,127.55
2022-09-24T11:31:32.226Z,129.15
2022-09-24T11:56:43.252Z,128.00
2022-09-24T12:21:51.083Z,134.00
2022-09-24T12:46:56.215Z,129.25
2022-09-24T13:12:17.904Z,127.07
2022-09-24T13:37:35.628Z,130.00
2022-09-24T14:02:40.810Z,128.52
2022-09-24T14:27:46.513Z,136.68
2022-09-24T14:52:57.794Z,128.38
2022-09-24T15:18:05.639Z,129.90
2022-09-24T15:43:15.738Z,136.90
2022-09-24T16:08:23.484Z,138.60
2022-09-24T16:33:27.781Z,130.50
2022-09-24T16:58:33.516Z,128.23
2022-09-24T17:23:38.459Z,129.30
2022-09-24T17:48:44.535Z,131.50
2022-09-24T18:13:55.106Z,131.35
2022-09-24T18:38:59.475Z,132.40
2022-09-24T19:04:04.019Z,130.80
2022-09-24T19:29:12.886Z,128.48
2022-09-24T19:54:17.557Z,129.43
2022-09-24T20:19:24.654Z,128.40
2022-09-24T20:44:29.615Z,125.90
2022-09-24T21:09:34.485Z,126.85
2022-09-24T21:34:39.287Z,125.93
2022-09-24T22:00:03.734Z,124.63
2022-09-24T22:25:10.034Z,121.82
2022-09-24T22:50:14.089Z,125.45
2022-09-24T23:15:18.186Z,128.77
2022-09-24T23:40:22.957Z,122.90
